Flight Track Log - Related Links

Times and Time Zones

All times are in EDT time to prevent confusion due to time zone crossing. See the SWA706 flight status page for this flight to view local times or setup timezone preferences in your user account.

Time Position Orientation Groundspeed Altitude Reporting Facility
EDT Latitude Longitude Course Direction KTS MPH feet Rate Location/Type
Sat 02:28:05 PM 38.7867 -90.3108 87° East 224 258 4,300  Level Kansas City Center
Sat 02:29:07 PM 38.7861 -90.2167 90° East 247 284 7,900 3,339 Climbing Kansas City Center
Sat 02:30:09 PM 38.7881 -90.1094 89° East 291 335 11,200 3,145 Climbing Kansas City Center
Sat 02:31:11 PM 38.7897 -89.9875 89° East 327 376 14,400 2,952 Climbing Kansas City Center
Sat 02:32:00 PM 38.8200 -89.5471 83° East  Level Estimated
Sat 02:32:13 PM 38.7908 -89.8583 89° East 356 410 17,300  Level Kansas City Center
Sat 02:33:14 PM 38.7914 -89.7208 90° East 375 432 19,800 2,390 Climbing Kansas City Center
Sat 02:34:16 PM 38.7928 -89.5519 89° East 398 458 22,200 2,419 Climbing Kansas City Center
Sat 02:35:18 PM 38.8081 -89.3867 83° East 431 496 24,800 2,468 Climbing Kansas City Center
Sat 02:36:20 PM 38.8275 -89.2358 81° East 430 495 27,300 1,984 Climbing Kansas City Center
Sat 02:37:22 PM 38.8464 -89.0825 81° East 436 502 28,900 1,452 Climbing Kansas City Center
Sat 02:38:24 PM 38.8678 -88.9339 79° East 449 517 30,300 1,645 Climbing Kansas City Center
Sat 02:39:26 PM 38.8894 -88.7725 80° East 458 527 32,300 2,293 Climbing Kansas City Center
Sat 02:40:27 PM 38.9094 -88.6003 81° East 440 506 35,000 2,000 Climbing Kansas City Center
Sat 02:41:29 PM 38.9314 -88.4519 79° East 426 490 36,400 968 Climbing Kansas City Center
Sat 02:42:31 PM 38.9708 -88.3094 70° East 420 483 37,000 290 Climbing Kansas City Center
Sat 02:43:33 PM 39.0103 -88.1667 70° East 420 483 37,000  Level Kansas City Center
Sat 02:44:17 PM 39.0397 -88.0553 71° East 421 484 37,000  Level Indianapolis Center
Sat 02:45:19 PM 39.0797 -87.9108 70° East 425 489 37,000  Level Indianapolis Center
Sat 02:46:20 PM 39.1189 -87.7686 70° East 420 483 37,000  Level Indianapolis Center
Sat 02:47:22 PM 39.1633 -87.6047 71° East 422 486 37,000  Level Indianapolis Center
Sat 02:48:24 PM 39.2022 -87.4636 70° East 421 484 37,000  Level Indianapolis Center
Sat 02:49:25 PM 39.2411 -87.3231 70° East 420 483 37,000  Level Indianapolis Center
Sat 02:50:27 PM 39.2644 -87.1744 78° East 423 487 37,000  Level Indianapolis Center
Sat 02:51:29 PM 39.2864 -87.0233 79° East 428 493 37,000  Level Indianapolis Center
Sat 02:52:30 PM 39.3078 -86.8747 79° East 425 489 37,000  Level Indianapolis Center
Sat 02:53:32 PM 39.3294 -86.7247 79° East 428 493 37,000  Level Indianapolis Center
Sat 02:54:34 PM 39.3547 -86.5447 80° East 429 494 37,000  Level Indianapolis Center
Sat 02:55:35 PM 39.3761 -86.3953 79° East 428 493 37,000  Level Indianapolis Center
Sat 02:56:37 PM 39.3961 -86.2453 80° East 429 494 37,000  Level Indianapolis Center
Sat 02:57:39 PM 39.4164 -86.0953 80° East 430 495 37,000  Level Indianapolis Center
Sat 02:58:40 PM 39.4378 -85.9453 79° East 430 495 37,000  Level Indianapolis Center
Sat 02:59:42 PM 39.4617 -85.7642 80° East 430 495 37,000  Level Indianapolis Center
Sat 03:00:44 PM 39.4825 -85.6133 80° East 430 495 37,000  Level Indianapolis Center
Sat 03:01:45 PM 39.5025 -85.4597 80° East 434 499 37,000  Level Indianapolis Center
Sat 03:02:47 PM 39.5225 -85.3064 80° East 435 501 37,000  Level Indianapolis Center
Sat 03:03:49 PM 39.5428 -85.1517 80° East 438 504 37,000  Level Indianapolis Center
Sat 03:04:50 PM 39.5625 -84.9964 81° East 440 506 37,000  Level Indianapolis Center
Sat 03:05:52 PM 39.5856 -84.8231 80° East 442 509 37,000  Level Indianapolis Center
Sat 03:06:54 PM 39.6056 -84.6658 81° East 444 511 37,000  Level Indianapolis Center
Sat 03:07:55 PM 39.6233 -84.5069 82° East 446 513 37,000  Level Indianapolis Center
Sat 03:08:57 PM 39.6431 -84.3494 81° East 446 513 37,000  Level Indianapolis Center
Sat 03:09:59 PM 39.6650 -84.1594 81° East 445 512 37,000  Level Indianapolis Center
Sat 03:11:01 PM 39.6856 -84.0014 80° East 446 513 37,000  Level Indianapolis Center
Sat 03:12:02 PM 39.7028 -83.8425 82° East 446 513 37,000  Level Indianapolis Center
Sat 03:13:04 PM 39.7214 -83.6839 81° East 448 516 37,000  Level Indianapolis Center
Sat 03:14:06 PM 39.7375 -83.5267 82° East 449 517 37,000  Level Indianapolis Center
Sat 03:15:07 PM 39.7603 -83.3378 81° East 455 524 37,000  Level Indianapolis Center
Sat 03:16:09 PM 39.7786 -83.1786 81° East 453 521 37,000  Level Indianapolis Center
Sat 03:17:11 PM 39.7964 -83.0186 82° East 452 520 37,000  Level Indianapolis Center
Sat 03:18:12 PM 39.8136 -82.8586 82° East 451 519 37,000  Level Indianapolis Center
Sat 03:19:14 PM 39.8308 -82.6994 82° East 447 514 37,000  Level Indianapolis Center
Sat 03:20:16 PM 39.8483 -82.5378 82° East 451 519 37,000 -390 Level Indianapolis Center
Sat 03:21:17 PM 39.8478 -82.3403 90° East 463 533 36,200 -829 Descending Indianapolis Center
Sat 03:22:19 PM 39.8408 -82.1769 93° East 456 525 35,300 -581 Descending Indianapolis Center
Sat 03:23:21 PM 39.8339 -82.0144 93° East 453 521 35,000 -146 Descending Indianapolis Center
Sat 03:24:22 PM 39.8267 -81.8547 93° East 446 513 35,000  Level Indianapolis Center
Sat 03:25:24 PM 39.8181 -81.6928 94° East 449 517 35,000  Level Indianapolis Center
Sat 03:26:26 PM 39.8106 -81.5303 93° East 451 519 35,000  Level Indianapolis Center
Sat 03:27:27 PM 39.8011 -81.3478 94° East 457 526 35,000  Level Indianapolis Center
Sat 03:28:29 PM 39.7925 -81.1831 94° East 456 525 35,000 -537 Level Indianapolis Center
Sat 03:29:30 PM 39.7825 -81.0194 94° East 454 522 33,900 -976 Descending Indianapolis Center
Sat 03:30:32 PM 39.7747 -80.8589 94° East 446 513 33,000 -435 Descending Indianapolis Center
Sat 03:31:34 PM 39.7644 -80.6958 95° East 449 517 33,000  Level Indianapolis Center
Sat 03:32:15 PM 39.7594 -80.5769 93° East 447 514 33,000  Level Cleveland Center
Sat 03:33:17 PM 39.7500 -80.4142 94° East 456 525 33,000 -339 Level Cleveland Center
Sat 03:34:19 PM 39.7397 -80.2531 95° East 454 522 32,300 -919 Descending Cleveland Center
Sat 03:35:21 PM 39.7264 -80.0572 95° East 456 525 31,100 -629 Descending Cleveland Center
Sat 03:36:23 PM 39.7189 -79.8967 93° East 450 518 31,000 -48 Descending Cleveland Center
Sat 03:37:25 PM 39.7061 -79.7314 96° East 459 528 31,000  Level Cleveland Center
Sat 03:38:27 PM 39.6944 -79.5656 95° East 463 533 31,000  Level Cleveland Center
Sat 03:39:29 PM 39.6833 -79.4017 95° East 460 529 31,000 -1,984 Level Cleveland Center
Sat 03:40:31 PM 39.6697 -79.2047 95° East 460 529 26,900 -2,903 Descending Cleveland Center
Sat 03:41:33 PM 39.6511 -79.0453 99° East 453 521 25,000 -1,548 Descending Cleveland Center
Sat 03:42:35 PM 39.6172 -78.8936 106° East 450 518 23,700 -2,419 Descending Cleveland Center
Sat 03:43:37 PM 39.5844 -78.7375 105° East 448 516 20,000 -2,400 Descending Cleveland Center
Sat 03:44:30 PM 39.5511 -78.5978 107° East 439 505 19,100 -973 Descending Washington Center
Sat 03:45:28 PM 39.5214 -78.4539 105° East 423 487 18,200 -915 Descending Washington Center
Sat 03:46:28 PM 39.4892 -78.3131 106° East 418 481 17,300 -1,041 Descending Washington Center
Sat 03:47:29 PM 39.4606 -78.1908 107° East 408 470 16,100 -1,082 Descending Washington Center
Sat 03:48:30 PM 39.4322 -78.0528 105° East 396 456 15,100 -496 Descending Washington Center
Sat 03:49:30 PM 39.4142 -77.9153 100° East 391 450 15,100  Level Washington Center
Sat 03:50:27 PM 39.4228 -77.7811 85° East 378 435 15,100  Level Washington Center
Sat 03:51:28 PM 39.4294 -77.6389 86° East 378 435 15,100  Level Washington Center
Sat 03:52:29 PM 39.4381 -77.4994 85° East 384 442 15,100 -1,983 Level Washington Center
Sat 03:53:26 PM 39.4500 -77.3500 84° East 397 457 11,200 -2,000 Descending Potomac TRACON
Sat 03:54:32 PM 39.4667 -77.2000 82° East 375 432 11,000 -381 Descending Potomac TRACON
Sat 03:55:32 PM 39.4833 -77.0667 81° East 368 423 10,400 -574 Descending Potomac TRACON
Sat 03:56:27 PM 39.4833 -76.9667 90° East 319 367 9,900 -1,200 Descending Potomac TRACON
Sat 03:57:27 PM 39.4667 -76.8500 100° East 300 345 8,100 -1,700 Descending Potomac TRACON
Sat 03:58:27 PM 39.4667 -76.7500 90° East 286 329 6,500 -1,600 Descending Potomac TRACON
Sat 03:59:27 PM 39.4333 -76.6667 117° Southeast 288 331 4,900 -1,250 Descending Potomac TRACON
Sat 04:00:27 PM 39.3833 -76.5833 128° Southeast 277 319 4,000 -450 Descending Potomac TRACON
Sat 04:01:27 PM 39.3333 -76.5333 142° Southeast 274 315 4,000  Level Potomac TRACON
Sat 04:02:27 PM 39.2667 -76.5167 169° South 263 303 4,000 -632 Level Potomac TRACON
Sat 04:03:21 PM 39.2000 -76.5000 169° South 270 311 2,800 -1,096 Descending Potomac TRACON
Sat 04:04:22 PM 39.1333 -76.5167 191° South 249 287 1,900 -446 Descending Potomac TRACON
Sat 04:05:22 PM 39.1000 -76.5667 229° Southwest 181 208 1,900 -200 Level Potomac TRACON
Sat 04:06:22 PM 39.1167 -76.6167 293° West 155 178 1,500 -574 Descending Potomac TRACON
Sat 04:07:17 PM 39.1333 -76.6333 322° Northwest 129 148 800 -764 Descending Potomac TRACON
Sat 04:09:00 PM 39.1667 -76.6667 286° West  Level FlightAware Approximate
Sat 04:16:00 PM 39.1754 -76.6683 286° West  Level Estimated

Login

Don't have an account? Register now (free) for customized features, flight alerts, and more!